San Cosme, Argentina
Current Conditions -  °F | °C
As of 11:00 AM on Monday 24 Nov 2014 (Local Time) from SARC Reporting Station
Clear Clear  
Wind Chill: 88°   Ceiling: Unl
Heat Index: 89°   Visibility: 6mi
Dew Point: 64°   Wind: 14mph
Humidity: 46%   Direction: 20°NNE
Pressure: 29.77"   Gusts: NA
Location:  27.37°S, 58.52°W
Report Text: SARC 241400Z 02012KT CAVOK 31/18 Q1008
Loading
Personal Weather Stations






























Interactive Weather Map New forecast layout! Learn more

10-Day Weather Forecast

Advertisements
Track Severe Weather on mobile